createdAt,value
2023-05-14T00:00:36.942Z,63.60
2023-05-14T00:03:04.231Z,63.70
2023-05-14T00:05:31.277Z,64.70
2023-05-14T00:07:58.192Z,64.10
2023-05-14T00:10:25.230Z,64.20
2023-05-14T00:12:52.288Z,64.30
2023-05-14T00:15:19.658Z,64.60
2023-05-14T00:17:46.541Z,64.80
2023-05-14T00:20:13.544Z,64.70
2023-05-14T00:22:40.497Z,64.80
2023-05-14T00:25:08.675Z,64.90
2023-05-14T00:27:37.819Z,65.00
2023-05-14T00:30:06.946Z,65.10
2023-05-14T00:32:34.056Z,65.10
2023-05-14T00:35:03.014Z,65.10
2023-05-14T00:37:29.917Z,65.10
2023-05-14T00:39:56.739Z,65.00
2023-05-14T00:42:23.855Z,65.10
2023-05-14T00:44:53.513Z,65.30
2023-05-14T00:47:21.083Z,65.40
2023-05-14T00:49:47.931Z,65.50
2023-05-14T00:52:15.428Z,65.60
2023-05-14T00:54:42.871Z,65.70
2023-05-14T00:57:09.687Z,65.80
2023-05-14T00:59:36.618Z,65.90
2023-05-14T01:02:03.707Z,65.90
2023-05-14T01:04:30.753Z,65.90
2023-05-14T01:07:07.397Z,65.80
2023-05-14T01:09:48.406Z,66.00
2023-05-14T01:12:49.900Z,66.10
2023-05-14T01:15:26.759Z,66.20
2023-05-14T01:18:07.360Z,66.10
2023-05-14T01:20:34.292Z,66.10
2023-05-14T01:23:01.097Z,66.10
2023-05-14T01:25:29.232Z,66.10
2023-05-14T01:28:09.316Z,66.40
2023-05-14T01:30:38.545Z,66.70
2023-05-14T01:33:13.247Z,66.50
2023-05-14T01:35:40.677Z,66.80
2023-05-14T01:38:11.115Z,66.90
2023-05-14T01:40:38.407Z,67.00
2023-05-14T01:43:05.826Z,66.90
2023-05-14T01:45:39.399Z,67.20
2023-05-14T01:48:06.739Z,67.20
2023-05-14T01:50:33.667Z,67.20
2023-05-14T01:53:00.438Z,67.20
2023-05-14T01:55:27.361Z,67.30
2023-05-14T01:57:54.666Z,67.40
2023-05-14T02:00:23.898Z,67.60
2023-05-14T02:02:51.193Z,67.80
2023-05-14T02:05:18.264Z,67.80
2023-05-14T02:07:45.204Z,67.70
2023-05-14T02:10:12.084Z,67.70
2023-05-14T02:12:38.790Z,67.90
2023-05-14T02:15:06.106Z,67.80
2023-05-14T02:17:33.093Z,68.00
2023-05-14T02:19:59.964Z,68.10
2023-05-14T02:22:26.828Z,68.20
2023-05-14T02:24:56.220Z,68.20
2023-05-14T02:27:26.057Z,68.40
2023-05-14T02:29:53.036Z,68.50
2023-05-14T02:32:20.156Z,68.40
2023-05-14T02:34:46.864Z,68.60
2023-05-14T02:37:13.798Z,68.60
2023-05-14T02:39:40.652Z,68.60
2023-05-14T02:42:07.596Z,68.70
2023-05-14T02:44:34.505Z,68.80
2023-05-14T02:47:03.848Z,68.80
2023-05-14T02:49:30.694Z,68.60
2023-05-14T02:51:57.669Z,68.70
2023-05-14T02:54:24.516Z,68.80
2023-05-14T02:56:51.314Z,68.90
2023-05-14T02:59:18.105Z,68.90
2023-05-14T03:01:45.642Z,69.00
2023-05-14T03:04:12.932Z,69.20
2023-05-14T03:06:39.783Z,69.20
2023-05-14T03:09:07.465Z,69.20
2023-05-14T03:11:34.483Z,69.20
2023-05-14T03:14:01.353Z,69.20
2023-05-14T03:16:28.387Z,69.20
2023-05-14T03:18:55.257Z,69.40
2023-05-14T03:21:24.377Z,69.50
2023-05-14T03:23:52.801Z,69.60
2023-05-14T03:26:19.772Z,69.70
2023-05-14T03:28:51.336Z,69.70
2023-05-14T03:31:18.253Z,69.90
2023-05-14T03:33:45.466Z,69.70
2023-05-14T03:36:12.171Z,69.90
2023-05-14T03:38:39.009Z,70.00
2023-05-14T03:41:05.758Z,69.90
2023-05-14T03:43:35.233Z,70.00
2023-05-14T03:46:01.953Z,70.00
2023-05-14T03:48:28.839Z,70.10
2023-05-14T03:50:55.728Z,70.30
2023-05-14T03:53:22.533Z,70.30
2023-05-14T03:55:49.293Z,70.20
2023-05-14T03:58:16.058Z,70.40
2023-05-14T04:00:43.506Z,70.50
2023-05-14T04:03:10.408Z,70.70
2023-05-14T04:05:37.361Z,70.80
2023-05-14T04:08:04.124Z,70.80
2023-05-14T04:10:32.091Z,70.70
2023-05-14T04:12:58.841Z,70.80
2023-05-14T04:15:25.677Z,70.70
2023-05-14T04:17:52.563Z,70.70
2023-05-14T04:20:19.455Z,70.70
2023-05-14T04:22:46.386Z,70.90
2023-05-14T04:25:13.320Z,71.00
2023-05-14T04:27:40.201Z,71.00
2023-05-14T04:30:08.551Z,71.20
2023-05-14T04:32:35.629Z,71.30
2023-05-14T04:35:03.003Z,71.30
2023-05-14T04:37:30.027Z,71.40
2023-05-14T04:39:57.065Z,71.40
2023-05-14T04:42:24.085Z,71.40
2023-05-14T04:44:50.913Z,71.50
2023-05-14T04:47:17.966Z,71.60
2023-05-14T04:49:44.867Z,71.70
2023-05-14T04:52:11.775Z,71.60
2023-05-14T04:54:38.591Z,71.70
2023-05-14T04:57:05.650Z,71.70
2023-05-14T04:59:32.704Z,71.70
2023-05-14T05:02:01.841Z,71.80
2023-05-14T05:04:28.635Z,71.90
2023-05-14T05:06:55.603Z,72.10
2023-05-14T05:09:22.379Z,72.10
2023-05-14T05:11:49.247Z,72.10
2023-05-14T05:14:16.063Z,72.20
2023-05-14T05:16:42.849Z,72.20
2023-05-14T05:19:09.635Z,72.20
2023-05-14T05:21:36.592Z,72.30
2023-05-14T05:24:03.452Z,72.30
2023-05-14T05:26:32.337Z,72.30
2023-05-14T05:28:59.634Z,72.30
2023-05-14T05:31:26.344Z,72.40
2023-05-14T05:33:53.319Z,72.50
2023-05-14T05:36:20.347Z,72.40
2023-05-14T05:38:47.113Z,72.50
2023-05-14T05:41:14.001Z,72.50
2023-05-14T05:43:41.010Z,72.60
2023-05-14T05:46:07.855Z,72.70
2023-05-14T05:48:37.768Z,72.70
2023-05-14T05:51:06.059Z,72.90
2023-05-14T05:53:32.848Z,72.70
2023-05-14T05:55:59.565Z,72.80
2023-05-14T05:58:26.540Z,72.70
2023-05-14T06:00:53.674Z,72.60
2023-05-14T06:03:21.084Z,72.60
2023-05-14T06:05:49.244Z,72.60
2023-05-14T06:08:18.942Z,72.40
2023-05-14T06:10:48.729Z,72.50
2023-05-14T06:13:15.676Z,72.50
2023-05-14T06:15:51.057Z,72.50
2023-05-14T06:18:17.976Z,72.40
2023-05-14T06:20:49.002Z,73.30
2023-05-14T06:23:15.730Z,72.50
2023-05-14T06:25:42.686Z,73.30
2023-05-14T06:28:09.499Z,72.30
2023-05-14T06:30:39.156Z,72.20
2023-05-14T06:33:06.016Z,72.10
2023-05-14T06:35:34.233Z,72.20
2023-05-14T06:38:01.120Z,72.20
2023-05-14T06:40:28.083Z,72.20
2023-05-14T06:42:54.961Z,72.30
2023-05-14T06:45:21.946Z,72.30
2023-05-14T06:47:51.977Z,72.20
2023-05-14T06:50:19.401Z,72.30
2023-05-14T06:52:46.590Z,72.20
2023-05-14T06:55:13.379Z,72.90
2023-05-14T06:57:41.937Z,72.90
2023-05-14T07:00:09.220Z,72.30
2023-05-14T07:02:39.268Z,72.30
2023-05-14T07:05:09.362Z,72.80
2023-05-14T07:07:36.404Z,71.90
2023-05-14T07:10:03.452Z,70.20
2023-05-14T07:12:30.259Z,69.10
2023-05-14T07:14:57.132Z,68.30
2023-05-14T07:17:24.744Z,68.10
2023-05-14T07:19:51.810Z,68.50
2023-05-14T07:22:18.586Z,68.30
2023-05-14T07:24:45.643Z,68.00
2023-05-14T07:27:16.986Z,68.20
2023-05-14T07:29:44.328Z,68.70
2023-05-14T07:32:12.256Z,69.90
2023-05-14T07:34:40.882Z,69.20
2023-05-14T07:37:07.810Z,68.40
2023-05-14T07:39:34.660Z,68.30
2023-05-14T07:42:01.928Z,68.00
2023-05-14T07:44:28.867Z,67.00
2023-05-14T07:46:55.734Z,66.80
2023-05-14T07:49:22.676Z,66.30
2023-05-14T07:51:49.386Z,65.40
2023-05-14T07:54:17.461Z,64.20
2023-05-14T07:56:44.555Z,63.80
2023-05-14T07:59:11.559Z,64.50
2023-05-14T08:01:39.501Z,63.80
2023-05-14T08:04:06.587Z,64.20
2023-05-14T08:06:34.335Z,64.70
2023-05-14T08:09:01.175Z,64.40
2023-05-14T08:11:28.016Z,64.10
2023-05-14T08:13:54.732Z,64.00
2023-05-14T08:16:21.561Z,63.20
2023-05-14T08:18:48.497Z,63.60
2023-05-14T08:21:15.495Z,62.60
2023-05-14T08:23:42.411Z,61.70
2023-05-14T08:26:09.333Z,61.30
2023-05-14T08:28:38.784Z,61.00
2023-05-14T08:31:16.419Z,60.70
2023-05-14T08:34:06.161Z,60.60
2023-05-14T08:36:32.958Z,61.00
2023-05-14T08:38:59.841Z,60.80
2023-05-14T08:41:26.793Z,60.80
2023-05-14T08:44:09.279Z,60.90
2023-05-14T08:46:38.372Z,60.90
2023-05-14T08:49:13.625Z,60.90
2023-05-14T08:51:41.080Z,61.30
2023-05-14T08:54:07.984Z,61.50
2023-05-14T08:56:36.096Z,60.90
2023-05-14T08:59:05.082Z,59.90
2023-05-14T09:01:32.032Z,59.50
2023-05-14T09:04:01.652Z,59.20
2023-05-14T09:06:29.290Z,59.40
2023-05-14T09:08:56.498Z,58.60
2023-05-14T09:11:25.586Z,58.70
2023-05-14T09:13:52.443Z,58.00
2023-05-14T09:16:20.181Z,58.20
2023-05-14T09:18:47.876Z,58.10
2023-05-14T09:21:15.999Z,57.20
2023-05-14T09:23:44.557Z,57.10
2023-05-14T09:26:12.212Z,56.70
2023-05-14T09:28:43.475Z,57.00
2023-05-14T09:31:10.347Z,57.60
2023-05-14T09:33:37.221Z,58.00
2023-05-14T09:36:04.372Z,57.40
2023-05-14T09:38:34.205Z,57.20
2023-05-14T09:41:01.042Z,57.20
2023-05-14T09:43:28.431Z,57.40
2023-05-14T09:45:55.293Z,57.30
2023-05-14T09:48:23.060Z,57.20
2023-05-14T09:50:52.546Z,57.40
2023-05-14T09:53:19.598Z,56.80
2023-05-14T09:55:46.958Z,56.30
2023-05-14T09:58:14.735Z,56.60
2023-05-14T10:00:47.395Z,56.20
2023-05-14T10:03:17.982Z,55.80
2023-05-14T10:05:49.513Z,55.70
2023-05-14T10:08:33.828Z,55.50
2023-05-14T10:11:03.622Z,55.60
2023-05-14T10:13:41.681Z,55.60
2023-05-14T10:16:22.118Z,56.00
2023-05-14T10:18:57.333Z,55.70
2023-05-14T10:21:26.836Z,55.00
2023-05-14T10:23:53.769Z,55.30
2023-05-14T10:26:23.223Z,55.00
2023-05-14T10:28:50.870Z,54.40
2023-05-14T10:31:17.829Z,54.90
2023-05-14T10:33:50.382Z,54.40
2023-05-14T10:36:20.797Z,53.60
2023-05-14T10:38:55.106Z,53.70
2023-05-14T10:41:22.241Z,54.70
2023-05-14T10:43:50.016Z,54.10
2023-05-14T10:46:16.898Z,54.10
2023-05-14T10:48:45.702Z,53.90
2023-05-14T10:51:17.505Z,53.60
2023-05-14T10:53:44.692Z,53.10
2023-05-14T10:56:13.327Z,53.30
2023-05-14T10:58:45.107Z,53.30
2023-05-14T11:01:13.580Z,52.00
2023-05-14T11:03:46.190Z,52.10
2023-05-14T11:06:14.943Z,51.50
2023-05-14T11:08:41.923Z,51.30
2023-05-14T11:11:09.832Z,51.20
2023-05-14T11:13:39.543Z,51.40
2023-05-14T11:18:41.896Z,51.60
2023-05-14T11:21:09.138Z,50.90
2023-05-14T11:23:36.252Z,50.50
2023-05-14T11:26:03.502Z,50.30
2023-05-14T11:28:30.380Z,50.40
2023-05-14T11:30:57.174Z,50.70
2023-05-14T11:33:26.294Z,50.80
2023-05-14T11:35:55.618Z,50.00
2023-05-14T11:38:26.160Z,49.50
2023-05-14T11:40:56.429Z,49.40
2023-05-14T11:43:24.009Z,48.80
2023-05-14T11:45:54.433Z,48.60
2023-05-14T11:48:25.023Z,48.80
2023-05-14T11:50:53.101Z,48.20
2023-05-14T11:53:24.854Z,48.30
2023-05-14T11:55:54.546Z,48.90
2023-05-14T11:58:22.079Z,48.50
2023-05-14T12:00:52.947Z,48.50
2023-05-14T12:03:26.270Z,48.50
2023-05-14T12:06:00.912Z,48.10
2023-05-14T12:08:30.027Z,48.00
2023-05-14T12:10:59.277Z,47.90
2023-05-14T12:13:28.257Z,47.50
2023-05-14T12:16:00.291Z,47.10
2023-05-14T12:18:28.824Z,47.00
2023-05-14T12:21:01.806Z,46.80
2023-05-14T12:23:30.283Z,46.50
2023-05-14T12:26:06.685Z,47.20
2023-05-14T12:28:44.242Z,46.40
2023-05-14T12:31:13.706Z,46.50
2023-05-14T12:33:40.396Z,46.60
2023-05-14T12:38:37.701Z,45.40
2023-05-14T12:41:04.387Z,45.20
2023-05-14T12:43:32.161Z,45.40
2023-05-14T12:45:59.062Z,45.80
2023-05-14T12:48:26.154Z,45.90
2023-05-14T12:50:55.749Z,45.20
2023-05-14T12:53:22.567Z,45.60
2023-05-14T12:55:49.697Z,45.70
2023-05-14T12:58:16.479Z,46.50
2023-05-14T13:00:46.414Z,47.30
2023-05-14T13:03:13.237Z,47.50
2023-05-14T13:05:43.259Z,48.10
2023-05-14T13:08:10.539Z,48.00
2023-05-14T13:10:37.297Z,48.00
2023-05-14T13:13:04.078Z,47.50
2023-05-14T13:15:32.536Z,46.80
2023-05-14T13:17:59.543Z,46.10
2023-05-14T13:20:32.821Z,45.90
2023-05-14T13:22:59.867Z,46.60
2023-05-14T13:25:27.530Z,46.20
2023-05-14T13:27:54.457Z,46.80
2023-05-14T13:30:27.415Z,46.70
2023-05-14T13:32:54.268Z,45.70
2023-05-14T13:35:23.718Z,46.00
2023-05-14T13:37:53.043Z,46.40
2023-05-14T13:40:19.861Z,46.00
2023-05-14T13:42:46.606Z,45.70
2023-05-14T13:45:15.868Z,45.90
2023-05-14T13:47:42.713Z,45.60
2023-05-14T13:50:09.639Z,45.40
2023-05-14T13:52:37.957Z,45.40
2023-05-14T13:55:05.177Z,45.00
2023-05-14T13:57:34.785Z,44.90
2023-05-14T14:00:01.794Z,44.90
2023-05-14T14:02:28.603Z,44.70
2023-05-14T14:04:55.511Z,44.70
2023-05-14T14:07:22.369Z,45.30
2023-05-14T14:09:49.206Z,45.60
2023-05-14T14:12:16.183Z,46.00
2023-05-14T14:14:45.627Z,45.90
2023-05-14T14:17:12.393Z,45.80
2023-05-14T14:19:39.415Z,45.90
2023-05-14T14:22:06.349Z,45.40
2023-05-14T14:24:33.214Z,45.30
2023-05-14T14:27:00.951Z,45.10
2023-05-14T14:29:28.893Z,44.90
2023-05-14T14:31:55.619Z,45.10
2023-05-14T14:34:22.420Z,45.30
2023-05-14T14:36:49.301Z,45.00
2023-05-14T14:39:16.485Z,45.10
2023-05-14T14:41:43.367Z,45.00
2023-05-14T14:44:10.198Z,45.20
2023-05-14T14:46:37.062Z,44.80
2023-05-14T14:49:03.874Z,44.50
2023-05-14T14:51:31.372Z,44.70
2023-05-14T14:53:58.109Z,45.10
2023-05-14T14:56:26.899Z,45.00
2023-05-14T14:58:53.738Z,44.50
2023-05-14T15:01:21.299Z,44.10
2023-05-14T15:03:48.682Z,43.80
2023-05-14T15:06:15.504Z,44.20
2023-05-14T15:08:42.320Z,44.50
2023-05-14T15:11:09.211Z,44.40
2023-05-14T15:13:36.727Z,44.30
2023-05-14T15:16:03.578Z,44.20
2023-05-14T15:18:30.360Z,44.00
2023-05-14T15:20:57.201Z,43.90
2023-05-14T15:23:23.973Z,44.00
2023-05-14T15:25:50.862Z,43.80
2023-05-14T15:28:17.867Z,43.50
2023-05-14T15:30:47.165Z,43.60
2023-05-14T15:33:19.899Z,44.10
2023-05-14T15:35:47.069Z,44.00
2023-05-14T15:38:13.976Z,44.10
2023-05-14T15:40:40.955Z,44.40
2023-05-14T15:43:07.963Z,44.40
2023-05-14T15:45:36.894Z,44.20
2023-05-14T15:48:06.588Z,44.70
2023-05-14T15:50:33.490Z,44.40
2023-05-14T15:53:00.948Z,44.60
2023-05-14T15:55:27.740Z,44.80
2023-05-14T15:57:54.574Z,44.60
2023-05-14T16:00:21.748Z,44.60
2023-05-14T16:02:48.723Z,44.70
2023-05-14T16:05:15.607Z,44.80
2023-05-14T16:07:43.003Z,45.20
2023-05-14T16:10:13.010Z,45.40
2023-05-14T16:12:42.847Z,45.70
2023-05-14T16:15:10.023Z,46.80
2023-05-14T16:17:36.893Z,46.20
2023-05-14T16:20:07.289Z,46.50
2023-05-14T16:22:35.251Z,46.70
2023-05-14T16:25:03.637Z,46.70
2023-05-14T16:27:31.037Z,46.90
2023-05-14T16:29:58.029Z,46.80
2023-05-14T16:32:25.312Z,46.80
2023-05-14T16:34:52.402Z,47.80
2023-05-14T16:37:22.235Z,49.40
2023-05-14T16:39:49.201Z,50.80
2023-05-14T16:42:16.627Z,51.40
2023-05-14T16:44:43.379Z,52.00
2023-05-14T16:47:10.453Z,52.50
2023-05-14T16:49:39.640Z,53.10
2023-05-14T16:52:06.867Z,53.60
2023-05-14T16:54:33.691Z,54.00
2023-05-14T16:57:00.539Z,54.40
2023-05-14T16:59:27.292Z,54.90
2023-05-14T17:01:54.105Z,55.00
2023-05-14T17:04:21.280Z,55.40
2023-05-14T17:06:48.135Z,55.60
2023-05-14T17:09:14.940Z,55.90
2023-05-14T17:11:41.727Z,56.10
2023-05-14T17:14:08.707Z,56.20
2023-05-14T17:16:35.574Z,56.00
2023-05-14T17:19:02.614Z,56.20
2023-05-14T17:21:29.356Z,56.30
2023-05-14T17:23:56.321Z,57.10
2023-05-14T17:26:23.346Z,56.60
2023-05-14T17:28:50.081Z,56.80
2023-05-14T17:31:17.078Z,57.10
2023-05-14T17:33:44.064Z,57.40
2023-05-14T17:36:10.944Z,57.50
2023-05-14T17:38:37.745Z,57.70
2023-05-14T17:41:04.748Z,57.80
2023-05-14T17:43:31.507Z,57.90
2023-05-14T17:46:01.408Z,58.10
2023-05-14T17:48:28.247Z,59.10
2023-05-14T17:50:54.988Z,58.60
2023-05-14T17:53:21.932Z,58.70
2023-05-14T17:55:50.114Z,58.90
2023-05-14T17:58:17.043Z,59.00
2023-05-14T18:00:44.062Z,59.20
2023-05-14T18:03:11.320Z,59.30
2023-05-14T18:05:38.260Z,59.50
2023-05-14T18:08:05.357Z,59.60
2023-05-14T18:10:32.244Z,59.90
2023-05-14T18:12:59.199Z,60.70
2023-05-14T18:15:27.399Z,60.00
2023-05-14T18:17:54.696Z,60.20
2023-05-14T18:20:21.618Z,60.50
2023-05-14T18:22:51.404Z,60.80
2023-05-14T18:25:21.167Z,61.00
2023-05-14T18:27:48.041Z,61.20
2023-05-14T18:30:15.625Z,61.40
2023-05-14T18:32:44.385Z,61.70
2023-05-14T18:35:12.754Z,61.90
2023-05-14T18:37:39.943Z,62.00
2023-05-14T18:40:07.453Z,62.20
2023-05-14T18:42:34.909Z,62.50
2023-05-14T18:45:01.799Z,62.50
2023-05-14T18:47:28.763Z,62.70
2023-05-14T18:49:58.020Z,62.90
2023-05-14T18:52:26.185Z,63.10
2023-05-14T18:54:53.902Z,63.30
2023-05-14T18:57:21.613Z,63.60
2023-05-14T18:59:48.886Z,63.70
2023-05-14T19:02:15.701Z,63.80
2023-05-14T19:04:51.743Z,64.10
2023-05-14T19:07:20.488Z,64.20
2023-05-14T19:09:47.249Z,64.30
2023-05-14T19:12:14.358Z,64.30
2023-05-14T19:14:43.963Z,64.60
2023-05-14T19:17:11.405Z,64.80
2023-05-14T19:19:41.651Z,64.90
2023-05-14T19:22:25.191Z,65.00
2023-05-14T19:24:52.276Z,65.00
2023-05-14T19:27:33.710Z,65.20
2023-05-14T19:30:00.575Z,65.40
2023-05-14T19:32:30.343Z,65.50
2023-05-14T19:34:57.092Z,65.80
2023-05-14T19:37:27.018Z,65.80
2023-05-14T19:39:54.448Z,65.90
2023-05-14T19:43:08.505Z,65.90
2023-05-14T19:46:45.221Z,66.30
2023-05-14T19:49:26.906Z,65.70
2023-05-14T19:52:36.964Z,65.90
2023-05-14T19:55:20.701Z,66.30
2023-05-14T20:00:44.815Z,66.60
2023-05-14T20:03:13.972Z,66.30
2023-05-14T20:09:05.986Z,66.50
2023-05-14T20:11:32.950Z,66.50
2023-05-14T20:13:59.786Z,67.00
2023-05-14T20:16:26.710Z,67.00
2023-05-14T20:18:54.261Z,67.30
2023-05-14T20:21:21.001Z,67.50
2023-05-14T20:23:47.773Z,67.60
2023-05-14T20:26:14.548Z,67.90
2023-05-14T20:28:45.762Z,67.90
2023-05-14T20:31:12.612Z,68.00
2023-05-14T20:33:39.636Z,68.00
2023-05-14T20:36:06.578Z,68.10
2023-05-14T20:38:35.067Z,68.30
2023-05-14T20:41:02.003Z,68.40
2023-05-14T20:43:28.859Z,68.40
2023-05-14T20:45:58.193Z,68.50
2023-05-14T20:48:25.091Z,68.70
2023-05-14T20:50:57.761Z,68.60
2023-05-14T20:53:25.512Z,68.70
2023-05-14T20:55:52.576Z,68.80
2023-05-14T20:58:20.416Z,68.70
2023-05-14T21:00:47.470Z,68.90
2023-05-14T21:03:17.186Z,69.00
2023-05-14T21:05:44.042Z,69.00
2023-05-14T21:08:11.296Z,69.20
2023-05-14T21:10:38.104Z,69.20
2023-05-14T21:13:04.912Z,69.30
2023-05-14T21:15:32.784Z,69.30
2023-05-14T21:17:59.829Z,69.40
2023-05-14T21:20:26.684Z,69.40
2023-05-14T21:22:53.527Z,69.50
2023-05-14T21:25:20.518Z,69.50
2023-05-14T21:27:47.296Z,69.70
2023-05-14T21:30:14.356Z,69.60
2023-05-14T21:32:41.754Z,69.60
2023-05-14T21:35:09.080Z,69.50
2023-05-14T21:37:36.142Z,69.60
2023-05-14T21:40:02.937Z,69.70
2023-05-14T21:42:32.136Z,69.70
2023-05-14T21:44:58.860Z,69.70
2023-05-14T21:47:26.876Z,69.80
2023-05-14T21:49:53.814Z,69.70
2023-05-14T21:52:21.825Z,69.70
2023-05-14T21:54:48.737Z,69.80
2023-05-14T21:57:15.836Z,69.80
2023-05-14T21:59:42.623Z,69.70
2023-05-14T22:02:09.429Z,69.90
2023-05-14T22:04:36.307Z,69.90
2023-05-14T22:07:03.477Z,69.90
2023-05-14T22:09:30.518Z,70.00
2023-05-14T22:11:58.364Z,70.10
2023-05-14T22:14:28.458Z,70.20
2023-05-14T22:16:55.552Z,70.30
2023-05-14T22:19:22.506Z,70.40
2023-05-14T22:21:49.391Z,70.60
2023-05-14T22:24:18.520Z,70.70
2023-05-14T22:26:50.162Z,70.70
2023-05-14T22:29:16.979Z,71.00
2023-05-14T22:31:44.034Z,71.00
2023-05-14T22:34:13.516Z,71.20
2023-05-14T22:36:40.407Z,71.20
2023-05-14T22:39:07.188Z,71.30
2023-05-14T22:41:33.958Z,71.40
2023-05-14T22:44:00.990Z,71.40
2023-05-14T22:46:27.824Z,71.50
2023-05-14T22:48:55.545Z,71.60
2023-05-14T22:51:22.430Z,71.70
2023-05-14T22:53:49.192Z,71.80
2023-05-14T22:56:16.039Z,71.80
2023-05-14T22:58:42.818Z,71.70
2023-05-14T23:01:12.448Z,71.80
2023-05-14T23:03:39.296Z,71.90
2023-05-14T23:06:06.473Z,72.10
2023-05-14T23:08:35.992Z,72.10
2023-05-14T23:11:02.903Z,72.20
2023-05-14T23:13:29.735Z,72.30
2023-05-14T23:15:56.736Z,72.30
2023-05-14T23:18:26.733Z,72.40
2023-05-14T23:20:53.740Z,72.50
2023-05-14T23:23:20.703Z,72.40
2023-05-14T23:25:49.999Z,72.40
2023-05-14T23:28:17.609Z,72.50
2023-05-14T23:30:44.716Z,72.60
2023-05-14T23:33:11.586Z,72.50
2023-05-14T23:35:39.406Z,72.60
2023-05-14T23:38:07.009Z,72.70
2023-05-14T23:40:34.150Z,72.70
2023-05-14T23:43:01.187Z,72.70
2023-05-14T23:45:28.124Z,72.70
2023-05-14T23:47:56.595Z,72.90
2023-05-14T23:50:23.578Z,72.90
2023-05-14T23:52:52.113Z,72.90
2023-05-14T23:55:19.307Z,73.00
2023-05-14T23:57:46.396Z,73.00
